sensor_id;sensor_type;location;lat;lon;timestamp;temperature;humidity
15103;DHT22;7652;53.584;9.998;2023-04-25T00:01:31;9.00;99.90
15103;DHT22;7652;53.584;9.998;2023-04-25T00:04:37;9.00;99.90
15103;DHT22;7652;53.584;9.998;2023-04-25T00:07:41;9.00;99.90
15103;DHT22;7652;53.584;9.998;2023-04-25T00:10:46;9.00;99.90
15103;DHT22;7652;53.584;9.998;2023-04-25T00:13:50;9.00;99.90
15103;DHT22;7652;53.584;9.998;2023-04-25T00:16:53;9.00;99.90
15103;DHT22;7652;53.584;9.998;2023-04-25T00:19:56;9.00;99.90
15103;DHT22;7652;53.584;9.998;2023-04-25T00:22:59;9.00;99.90
15103;DHT22;7652;53.584;9.998;2023-04-25T00:26:04;8.90;99.90
15103;DHT22;7652;53.584;9.998;2023-04-25T00:29:07;8.90;99.90
15103;DHT22;7652;53.584;9.998;2023-04-25T00:32:10;8.80;99.90
15103;DHT22;7652;53.584;9.998;2023-04-25T00:35:13;8.80;99.90
15103;DHT22;7652;53.584;9.998;2023-04-25T00:38:16;8.70;99.90
15103;DHT22;7652;53.584;9.998;2023-04-25T00:41:20;8.80;99.90
15103;DHT22;7652;53.584;9.998;2023-04-25T00:44:24;8.80;99.90
15103;DHT22;7652;53.584;9.998;2023-04-25T00:47:28;8.80;99.90
15103;DHT22;7652;53.584;9.998;2023-04-25T00:50:33;8.80;99.90
15103;DHT22;7652;53.584;9.998;2023-04-25T00:53:36;8.90;99.90
15103;DHT22;7652;53.584;9.998;2023-04-25T00:56:41;8.90;99.90
15103;DHT22;7652;53.584;9.998;2023-04-25T00:59:45;8.90;99.90
15103;DHT22;7652;53.584;9.998;2023-04-25T01:02:49;8.80;99.90
15103;DHT22;7652;53.584;9.998;2023-04-25T01:05:53;8.80;99.90
15103;DHT22;7652;53.584;9.998;2023-04-25T01:08:56;8.70;99.90
15103;DHT22;7652;53.584;9.998;2023-04-25T01:12:00;8.70;99.90
15103;DHT22;7652;53.584;9.998;2023-04-25T01:15:05;8.80;99.90
15103;DHT22;7652;53.584;9.998;2023-04-25T01:18:08;8.60;99.90
15103;DHT22;7652;53.584;9.998;2023-04-25T01:21:12;8.70;99.90
15103;DHT22;7652;53.584;9.998;2023-04-25T01:24:17;8.70;99.90
15103;DHT22;7652;53.584;9.998;2023-04-25T01:27:21;8.70;99.90
15103;DHT22;7652;53.584;9.998;2023-04-25T01:30:26;8.70;99.90
15103;DHT22;7652;53.584;9.998;2023-04-25T01:33:29;8.70;99.90
15103;DHT22;7652;53.584;9.998;2023-04-25T01:36:34;8.70;99.90
15103;DHT22;7652;53.584;9.998;2023-04-25T01:39:37;8.60;99.90
15103;DHT22;7652;53.584;9.998;2023-04-25T01:42:42;8.70;99.90
15103;DHT22;7652;53.584;9.998;2023-04-25T01:45:46;8.70;99.90
15103;DHT22;7652;53.584;9.998;2023-04-25T01:48:49;8.60;99.90
15103;DHT22;7652;53.584;9.998;2023-04-25T01:51:53;8.70;99.90
15103;DHT22;7652;53.584;9.998;2023-04-25T01:54:57;8.60;99.90
15103;DHT22;7652;53.584;9.998;2023-04-25T01:58:01;8.60;99.90
15103;DHT22;7652;53.584;9.998;2023-04-25T02:01:05;8.50;99.90
15103;DHT22;7652;53.584;9.998;2023-04-25T02:04:08;8.50;99.90
15103;DHT22;7652;53.584;9.998;2023-04-25T02:07:12;8.50;99.90
15103;DHT22;7652;53.584;9.998;2023-04-25T02:10:15;8.60;99.90
15103;DHT22;7652;53.584;9.998;2023-04-25T02:13:18;8.50;99.90
15103;DHT22;7652;53.584;9.998;2023-04-25T02:16:21;8.50;99.90
15103;DHT22;7652;53.584;9.998;2023-04-25T02:19:25;8.50;99.90
15103;DHT22;7652;53.584;9.998;2023-04-25T02:22:29;8.50;99.90
15103;DHT22;7652;53.584;9.998;2023-04-25T02:25:32;8.40;99.90
15103;DHT22;7652;53.584;9.998;2023-04-25T02:28:35;8.40;99.90
15103;DHT22;7652;53.584;9.998;2023-04-25T02:31:38;8.40;99.90
15103;DHT22;7652;53.584;9.998;2023-04-25T02:34:41;8.40;99.90
15103;DHT22;7652;53.584;9.998;2023-04-25T02:37:45;8.40;99.90
15103;DHT22;7652;53.584;9.998;2023-04-25T02:40:48;8.30;99.90
15103;DHT22;7652;53.584;9.998;2023-04-25T02:43:51;8.30;99.90
15103;DHT22;7652;53.584;9.998;2023-04-25T02:46:54;8.30;99.90
15103;DHT22;7652;53.584;9.998;2023-04-25T02:49:57;8.30;99.90
15103;DHT22;7652;53.584;9.998;2023-04-25T02:53:02;8.30;99.90
15103;DHT22;7652;53.584;9.998;2023-04-25T02:56:05;8.30;99.90
15103;DHT22;7652;53.584;9.998;2023-04-25T02:59:08;8.30;99.90
15103;DHT22;7652;53.584;9.998;2023-04-25T03:02:11;8.20;99.90
15103;DHT22;7652;53.584;9.998;2023-04-25T03:05:14;8.10;99.90
15103;DHT22;7652;53.584;9.998;2023-04-25T03:08:19;8.20;99.90
15103;DHT22;7652;53.584;9.998;2023-04-25T03:11:25;8.10;99.90
15103;DHT22;7652;53.584;9.998;2023-04-25T03:14:28;8.10;99.90
15103;DHT22;7652;53.584;9.998;2023-04-25T03:17:31;8.00;99.90
15103;DHT22;7652;53.584;9.998;2023-04-25T03:20:35;8.00;99.90
15103;DHT22;7652;53.584;9.998;2023-04-25T03:23:40;7.80;99.90
15103;DHT22;7652;53.584;9.998;2023-04-25T03:26:43;7.80;99.90
15103;DHT22;7652;53.584;9.998;2023-04-25T03:29:46;7.80;99.90
15103;DHT22;7652;53.584;9.998;2023-04-25T03:32:49;7.80;99.90
15103;DHT22;7652;53.584;9.998;2023-04-25T03:35:52;7.70;99.90
15103;DHT22;7652;53.584;9.998;2023-04-25T03:38:56;7.50;99.90
15103;DHT22;7652;53.584;9.998;2023-04-25T03:41:59;7.40;99.90
15103;DHT22;7652;53.584;9.998;2023-04-25T03:45:03;7.40;99.90
15103;DHT22;7652;53.584;9.998;2023-04-25T03:48:06;7.30;99.90
15103;DHT22;7652;53.584;9.998;2023-04-25T03:51:09;7.30;99.90
15103;DHT22;7652;53.584;9.998;2023-04-25T03:54:13;7.20;99.90
15103;DHT22;7652;53.584;9.998;2023-04-25T03:57:16;7.30;99.90
15103;DHT22;7652;53.584;9.998;2023-04-25T04:00:19;7.30;99.90
15103;DHT22;7652;53.584;9.998;2023-04-25T04:03:22;7.30;99.90
15103;DHT22;7652;53.584;9.998;2023-04-25T04:06:26;7.40;99.90
15103;DHT22;7652;53.584;9.998;2023-04-25T04:09:31;7.40;99.90
15103;DHT22;7652;53.584;9.998;2023-04-25T04:12:34;7.40;99.90
15103;DHT22;7652;53.584;9.998;2023-04-25T04:15:37;7.30;99.90
15103;DHT22;7652;53.584;9.998;2023-04-25T04:18:40;7.30;99.90
15103;DHT22;7652;53.584;9.998;2023-04-25T04:21:43;7.20;99.90
15103;DHT22;7652;53.584;9.998;2023-04-25T04:24:48;7.20;99.90
15103;DHT22;7652;53.584;9.998;2023-04-25T04:27:51;7.20;99.90
15103;DHT22;7652;53.584;9.998;2023-04-25T04:30:56;7.20;99.90
15103;DHT22;7652;53.584;9.998;2023-04-25T04:33:59;7.20;99.90
15103;DHT22;7652;53.584;9.998;2023-04-25T04:37:03;7.10;99.90
15103;DHT22;7652;53.584;9.998;2023-04-25T04:40:09;7.00;99.90
15103;DHT22;7652;53.584;9.998;2023-04-25T04:43:12;7.00;99.90
15103;DHT22;7652;53.584;9.998;2023-04-25T04:46:15;7.10;99.90
15103;DHT22;7652;53.584;9.998;2023-04-25T04:49:21;7.20;99.90
15103;DHT22;7652;53.584;9.998;2023-04-25T04:52:24;7.30;99.90
15103;DHT22;7652;53.584;9.998;2023-04-25T04:55:28;7.40;99.90
15103;DHT22;7652;53.584;9.998;2023-04-25T04:58:31;7.50;99.90
15103;DHT22;7652;53.584;9.998;2023-04-25T05:01:34;7.50;99.90
15103;DHT22;7652;53.584;9.998;2023-04-25T05:04:38;7.50;99.90
15103;DHT22;7652;53.584;9.998;2023-04-25T05:07:41;7.60;99.90
15103;DHT22;7652;53.584;9.998;2023-04-25T05:10:45;7.70;99.90
15103;DHT22;7652;53.584;9.998;2023-04-25T05:13:49;7.80;99.90
15103;DHT22;7652;53.584;9.998;2023-04-25T05:16:52;7.80;99.90
15103;DHT22;7652;53.584;9.998;2023-04-25T05:19:55;7.70;99.90
15103;DHT22;7652;53.584;9.998;2023-04-25T05:22:58;7.60;99.90
15103;DHT22;7652;53.584;9.998;2023-04-25T05:26:03;7.50;99.90
15103;DHT22;7652;53.584;9.998;2023-04-25T05:29:07;7.50;99.90
15103;DHT22;7652;53.584;9.998;2023-04-25T05:32:10;7.50;99.90
15103;DHT22;7652;53.584;9.998;2023-04-25T05:35:13;7.50;99.90
15103;DHT22;7652;53.584;9.998;2023-04-25T05:38:16;7.60;99.90
15103;DHT22;7652;53.584;9.998;2023-04-25T05:41:20;7.60;99.90
15103;DHT22;7652;53.584;9.998;2023-04-25T05:44:23;7.60;99.90
15103;DHT22;7652;53.584;9.998;2023-04-25T05:47:26;7.70;99.90
15103;DHT22;7652;53.584;9.998;2023-04-25T05:50:29;7.80;99.90
15103;DHT22;7652;53.584;9.998;2023-04-25T05:53:32;7.90;99.90
15103;DHT22;7652;53.584;9.998;2023-04-25T05:56:37;7.90;99.90
15103;DHT22;7652;53.584;9.998;2023-04-25T05:59:40;8.00;99.90
15103;DHT22;7652;53.584;9.998;2023-04-25T06:02:43;8.00;99.90
15103;DHT22;7652;53.584;9.998;2023-04-25T06:05:46;8.20;99.90
15103;DHT22;7652;53.584;9.998;2023-04-25T06:08:49;8.20;99.90
15103;DHT22;7652;53.584;9.998;2023-04-25T06:11:53;8.30;99.90
15103;DHT22;7652;53.584;9.998;2023-04-25T06:14:56;8.40;99.90
15103;DHT22;7652;53.584;9.998;2023-04-25T06:17:59;8.50;99.90
15103;DHT22;7652;53.584;9.998;2023-04-25T06:21:03;8.50;99.90
15103;DHT22;7652;53.584;9.998;2023-04-25T06:24:06;8.60;99.90
15103;DHT22;7652;53.584;9.998;2023-04-25T06:27:11;8.60;99.90
15103;DHT22;7652;53.584;9.998;2023-04-25T06:30:17;8.60;99.90
15103;DHT22;7652;53.584;9.998;2023-04-25T06:33:24;8.60;99.90
15103;DHT22;7652;53.584;9.998;2023-04-25T06:36:28;8.60;99.90
15103;DHT22;7652;53.584;9.998;2023-04-25T06:39:32;8.60;99.90
15103;DHT22;7652;53.584;9.998;2023-04-25T06:42:36;8.70;99.90
15103;DHT22;7652;53.584;9.998;2023-04-25T06:45:39;8.80;99.90
15103;DHT22;7652;53.584;9.998;2023-04-25T06:48:42;9.00;99.90
15103;DHT22;7652;53.584;9.998;2023-04-25T06:51:45;9.00;99.90
15103;DHT22;7652;53.584;9.998;2023-04-25T06:54:48;9.00;99.90
15103;DHT22;7652;53.584;9.998;2023-04-25T06:57:52;9.10;99.90
15103;DHT22;7652;53.584;9.998;2023-04-25T07:00:56;9.20;99.90
15103;DHT22;7652;53.584;9.998;2023-04-25T07:03:59;9.30;99.90
15103;DHT22;7652;53.584;9.998;2023-04-25T07:07:03;9.30;99.90
15103;DHT22;7652;53.584;9.998;2023-04-25T07:10:06;9.40;99.90
15103;DHT22;7652;53.584;9.998;2023-04-25T07:13:10;9.50;99.90
15103;DHT22;7652;53.584;9.998;2023-04-25T07:16:13;9.60;99.90
15103;DHT22;7652;53.584;9.998;2023-04-25T07:19:16;9.70;99.90
15103;DHT22;7652;53.584;9.998;2023-04-25T07:22:19;9.60;99.90
15103;DHT22;7652;53.584;9.998;2023-04-25T07:25:22;9.40;99.90
15103;DHT22;7652;53.584;9.998;2023-04-25T07:28:27;9.30;99.90
15103;DHT22;7652;53.584;9.998;2023-04-25T07:31:30;9.20;99.90
15103;DHT22;7652;53.584;9.998;2023-04-25T07:34:33;9.30;99.90
15103;DHT22;7652;53.584;9.998;2023-04-25T07:37:38;9.40;99.90
15103;DHT22;7652;53.584;9.998;2023-04-25T07:40:41;9.20;99.90
15103;DHT22;7652;53.584;9.998;2023-04-25T07:43:46;9.20;99.90
15103;DHT22;7652;53.584;9.998;2023-04-25T07:46:49;9.30;99.90
15103;DHT22;7652;53.584;9.998;2023-04-25T07:49:52;9.40;99.90
15103;DHT22;7652;53.584;9.998;2023-04-25T07:52:55;9.50;99.90
15103;DHT22;7652;53.584;9.998;2023-04-25T07:55:58;9.50;99.90
15103;DHT22;7652;53.584;9.998;2023-04-25T07:59:02;9.90;99.90
15103;DHT22;7652;53.584;9.998;2023-04-25T08:02:05;10.20;99.90
15103;DHT22;7652;53.584;9.998;2023-04-25T08:05:08;10.70;99.90
15103;DHT22;7652;53.584;9.998;2023-04-25T08:08:14;10.80;99.90
15103;DHT22;7652;53.584;9.998;2023-04-25T08:11:17;10.80;99.90
15103;DHT22;7652;53.584;9.998;2023-04-25T08:14:21;10.80;99.90
15103;DHT22;7652;53.584;9.998;2023-04-25T08:17:24;10.70;99.90
15103;DHT22;7652;53.584;9.998;2023-04-25T08:20:27;10.50;99.90
15103;DHT22;7652;53.584;9.998;2023-04-25T08:23:30;10.50;99.90
15103;DHT22;7652;53.584;9.998;2023-04-25T08:26:33;10.20;99.90
15103;DHT22;7652;53.584;9.998;2023-04-25T08:29:37;10.10;99.90
15103;DHT22;7652;53.584;9.998;2023-04-25T08:32:41;10.10;99.90
15103;DHT22;7652;53.584;9.998;2023-04-25T08:35:44;10.40;99.90
15103;DHT22;7652;53.584;9.998;2023-04-25T08:38:47;10.70;99.90
15103;DHT22;7652;53.584;9.998;2023-04-25T08:41:51;10.90;99.90
15103;DHT22;7652;53.584;9.998;2023-04-25T08:44:57;10.80;99.90
15103;DHT22;7652;53.584;9.998;2023-04-25T08:48:02;10.70;99.90
15103;DHT22;7652;53.584;9.998;2023-04-25T08:51:07;10.60;99.90
15103;DHT22;7652;53.584;9.998;2023-04-25T08:54:12;11.00;99.90
15103;DHT22;7652;53.584;9.998;2023-04-25T08:57:19;11.40;99.90
15103;DHT22;7652;53.584;9.998;2023-04-25T09:00:24;11.70;99.90
15103;DHT22;7652;53.584;9.998;2023-04-25T09:03:28;11.50;99.90
15103;DHT22;7652;53.584;9.998;2023-04-25T09:06:31;11.50;99.90
15103;DHT22;7652;53.584;9.998;2023-04-25T09:09:36;11.70;99.90
15103;DHT22;7652;53.584;9.998;2023-04-25T09:12:39;11.60;99.90
15103;DHT22;7652;53.584;9.998;2023-04-25T09:15:50;11.40;99.90
15103;DHT22;7652;53.584;9.998;2023-04-25T09:18:54;11.20;99.90
15103;DHT22;7652;53.584;9.998;2023-04-25T09:21:58;10.90;99.90
15103;DHT22;7652;53.584;9.998;2023-04-25T09:25:03;10.80;99.90
15103;DHT22;7652;53.584;9.998;2023-04-25T09:28:08;10.90;99.90
15103;DHT22;7652;53.584;9.998;2023-04-25T09:31:21;11.10;99.90
15103;DHT22;7652;53.584;9.998;2023-04-25T09:34:26;11.30;99.90
15103;DHT22;7652;53.584;9.998;2023-04-25T09:37:30;11.50;99.90
15103;DHT22;7652;53.584;9.998;2023-04-25T09:40:33;11.60;99.90
15103;DHT22;7652;53.584;9.998;2023-04-25T09:43:36;11.40;99.90
15103;DHT22;7652;53.584;9.998;2023-04-25T09:46:41;10.50;99.90
15103;DHT22;7652;53.584;9.998;2023-04-25T09:49:44;9.70;99.90
15103;DHT22;7652;53.584;9.998;2023-04-25T09:53:02;9.30;99.90
15103;DHT22;7652;53.584;9.998;2023-04-25T09:56:07;9.40;99.90
15103;DHT22;7652;53.584;9.998;2023-04-25T09:59:11;9.80;99.90
15103;DHT22;7652;53.584;9.998;2023-04-25T10:02:18;10.30;99.90
15103;DHT22;7652;53.584;9.998;2023-04-25T10:05:22;10.80;99.90
15103;DHT22;7652;53.584;9.998;2023-04-25T10:08:31;11.40;99.90
15103;DHT22;7652;53.584;9.998;2023-04-25T10:11:35;11.80;99.90
15103;DHT22;7652;53.584;9.998;2023-04-25T10:14:38;12.10;99.90
15103;DHT22;7652;53.584;9.998;2023-04-25T10:17:44;12.40;99.90
15103;DHT22;7652;53.584;9.998;2023-04-25T10:20:47;12.90;99.90
15103;DHT22;7652;53.584;9.998;2023-04-25T10:23:51;13.10;99.90
15103;DHT22;7652;53.584;9.998;2023-04-25T10:26:56;12.90;99.90
15103;DHT22;7652;53.584;9.998;2023-04-25T10:30:04;12.50;99.90
15103;DHT22;7652;53.584;9.998;2023-04-25T10:33:17;12.30;99.90
15103;DHT22;7652;53.584;9.998;2023-04-25T10:36:22;13.10;99.90
15103;DHT22;7652;53.584;9.998;2023-04-25T10:39:27;14.30;99.90
15103;DHT22;7652;53.584;9.998;2023-04-25T10:42:30;15.00;99.90
15103;DHT22;7652;53.584;9.998;2023-04-25T10:45:51;15.00;99.90
15103;DHT22;7652;53.584;9.998;2023-04-25T10:48:56;15.40;99.90
15103;DHT22;7652;53.584;9.998;2023-04-25T10:52:17;14.80;99.90
15103;DHT22;7652;53.584;9.998;2023-04-25T10:55:20;14.70;99.90
15103;DHT22;7652;53.584;9.998;2023-04-25T10:58:23;15.00;99.90
15103;DHT22;7652;53.584;9.998;2023-04-25T11:01:27;14.60;99.90
15103;DHT22;7652;53.584;9.998;2023-04-25T11:04:40;13.90;99.90
15103;DHT22;7652;53.584;9.998;2023-04-25T11:07:50;13.10;99.90
15103;DHT22;7652;53.584;9.998;2023-04-25T11:11:08;12.60;99.90
15103;DHT22;7652;53.584;9.998;2023-04-25T11:14:11;13.60;99.90
15103;DHT22;7652;53.584;9.998;2023-04-25T11:17:14;14.50;99.90
15103;DHT22;7652;53.584;9.998;2023-04-25T11:20:19;14.40;99.90
15103;DHT22;7652;53.584;9.998;2023-04-25T11:23:22;14.00;99.90
15103;DHT22;7652;53.584;9.998;2023-04-25T11:26:25;13.30;99.90
15103;DHT22;7652;53.584;9.998;2023-04-25T11:29:28;12.90;99.90
15103;DHT22;7652;53.584;9.998;2023-04-25T11:32:33;12.60;99.90
15103;DHT22;7652;53.584;9.998;2023-04-25T11:35:40;12.40;99.90
15103;DHT22;7652;53.584;9.998;2023-04-25T11:38:43;12.30;99.90
15103;DHT22;7652;53.584;9.998;2023-04-25T11:41:46;12.10;99.90
15103;DHT22;7652;53.584;9.998;2023-04-25T11:44:49;11.80;99.90
15103;DHT22;7652;53.584;9.998;2023-04-25T11:47:52;11.80;99.90
15103;DHT22;7652;53.584;9.998;2023-04-25T11:50:57;12.10;99.90
15103;DHT22;7652;53.584;9.998;2023-04-25T11:54:00;13.40;99.90
15103;DHT22;7652;53.584;9.998;2023-04-25T11:57:04;15.00;99.90
15103;DHT22;7652;53.584;9.998;2023-04-25T12:00:10;15.40;99.90
15103;DHT22;7652;53.584;9.998;2023-04-25T12:03:19;16.30;99.50
15103;DHT22;7652;53.584;9.998;2023-04-25T12:06:27;17.10;97.10
15103;DHT22;7652;53.584;9.998;2023-04-25T12:09:32;17.50;96.10
15103;DHT22;7652;53.584;9.998;2023-04-25T12:12:37;16.80;96.30
15103;DHT22;7652;53.584;9.998;2023-04-25T12:15:40;17.00;95.90
15103;DHT22;7652;53.584;9.998;2023-04-25T12:18:43;16.90;92.60
15103;DHT22;7652;53.584;9.998;2023-04-25T12:21:48;16.60;92.00
15103;DHT22;7652;53.584;9.998;2023-04-25T12:25:00;16.40;91.50
15103;DHT22;7652;53.584;9.998;2023-04-25T12:28:16;16.60;92.10
15103;DHT22;7652;53.584;9.998;2023-04-25T12:31:22;17.50;91.90
15103;DHT22;7652;53.584;9.998;2023-04-25T12:34:25;17.50;87.40
15103;DHT22;7652;53.584;9.998;2023-04-25T12:37:29;18.50;85.40
15103;DHT22;7652;53.584;9.998;2023-04-25T12:40:33;19.40;79.50
15103;DHT22;7652;53.584;9.998;2023-04-25T12:43:36;19.70;76.20
15103;DHT22;7652;53.584;9.998;2023-04-25T12:46:39;19.60;74.50
15103;DHT22;7652;53.584;9.998;2023-04-25T12:49:42;19.30;75.40
15103;DHT22;7652;53.584;9.998;2023-04-25T12:52:47;18.80;76.30
15103;DHT22;7652;53.584;9.998;2023-04-25T12:55:50;17.60;80.90
15103;DHT22;7652;53.584;9.998;2023-04-25T12:58:53;16.50;91.10
15103;DHT22;7652;53.584;9.998;2023-04-25T13:01:56;16.10;92.20
15103;DHT22;7652;53.584;9.998;2023-04-25T13:04:59;16.20;91.70
15103;DHT22;7652;53.584;9.998;2023-04-25T13:08:04;16.90;90.60
15103;DHT22;7652;53.584;9.998;2023-04-25T13:11:07;17.60;89.60
15103;DHT22;7652;53.584;9.998;2023-04-25T13:14:10;17.60;86.60
15103;DHT22;7652;53.584;9.998;2023-04-25T13:17:13;17.40;86.10
15103;DHT22;7652;53.584;9.998;2023-04-25T13:20:16;16.70;90.10
15103;DHT22;7652;53.584;9.998;2023-04-25T13:23:22;15.20;93.50
15103;DHT22;7652;53.584;9.998;2023-04-25T13:26:25;13.90;99.90
15103;DHT22;7652;53.584;9.998;2023-04-25T13:29:28;12.40;99.90
15103;DHT22;7652;53.584;9.998;2023-04-25T13:32:31;11.50;99.90
15103;DHT22;7652;53.584;9.998;2023-04-25T13:35:35;11.10;99.90
15103;DHT22;7652;53.584;9.998;2023-04-25T13:38:40;11.00;99.90
15103;DHT22;7652;53.584;9.998;2023-04-25T13:41:45;11.10;99.90
15103;DHT22;7652;53.584;9.998;2023-04-25T13:44:48;11.30;99.90
15103;DHT22;7652;53.584;9.998;2023-04-25T13:47:51;11.50;99.90
15103;DHT22;7652;53.584;9.998;2023-04-25T13:50:55;11.50;99.90
15103;DHT22;7652;53.584;9.998;2023-04-25T13:53:59;11.00;99.90
15103;DHT22;7652;53.584;9.998;2023-04-25T13:57:02;10.40;99.90
15103;DHT22;7652;53.584;9.998;2023-04-25T14:00:06;9.80;99.90
15103;DHT22;7652;53.584;9.998;2023-04-25T14:03:10;9.50;99.90
15103;DHT22;7652;53.584;9.998;2023-04-25T14:06:13;9.40;99.90
15103;DHT22;7652;53.584;9.998;2023-04-25T14:09:24;9.50;99.90
15103;DHT22;7652;53.584;9.998;2023-04-25T14:12:28;9.70;99.90
15103;DHT22;7652;53.584;9.998;2023-04-25T14:15:31;9.80;99.90
15103;DHT22;7652;53.584;9.998;2023-04-25T14:18:35;10.00;99.90
15103;DHT22;7652;53.584;9.998;2023-04-25T14:21:38;10.40;99.90
15103;DHT22;7652;53.584;9.998;2023-04-25T14:24:44;10.60;99.90
15103;DHT22;7652;53.584;9.998;2023-04-25T14:27:47;10.80;99.90
15103;DHT22;7652;53.584;9.998;2023-04-25T14:30:51;10.80;99.90
15103;DHT22;7652;53.584;9.998;2023-04-25T14:33:54;10.80;99.90
15103;DHT22;7652;53.584;9.998;2023-04-25T14:37:00;10.80;99.90
15103;DHT22;7652;53.584;9.998;2023-04-25T14:40:06;10.80;99.90
15103;DHT22;7652;53.584;9.998;2023-04-25T14:43:10;11.00;99.90
15103;DHT22;7652;53.584;9.998;2023-04-25T14:46:13;11.10;99.90
15103;DHT22;7652;53.584;9.998;2023-04-25T14:49:16;11.00;99.90
15103;DHT22;7652;53.584;9.998;2023-04-25T14:52:19;11.10;99.90
15103;DHT22;7652;53.584;9.998;2023-04-25T14:55:23;11.10;99.90
15103;DHT22;7652;53.584;9.998;2023-04-25T14:58:27;11.10;99.90
15103;DHT22;7652;53.584;9.998;2023-04-25T15:01:30;11.00;99.90
15103;DHT22;7652;53.584;9.998;2023-04-25T15:04:33;11.10;99.90
15103;DHT22;7652;53.584;9.998;2023-04-25T15:07:36;11.30;99.90
15103;DHT22;7652;53.584;9.998;2023-04-25T15:10:42;11.30;99.90
15103;DHT22;7652;53.584;9.998;2023-04-25T15:13:45;11.20;99.90
15103;DHT22;7652;53.584;9.998;2023-04-25T15:16:48;11.10;99.90
15103;DHT22;7652;53.584;9.998;2023-04-25T15:19:51;11.00;99.90
15103;DHT22;7652;53.584;9.998;2023-04-25T15:22:57;10.80;99.90
15103;DHT22;7652;53.584;9.998;2023-04-25T15:26:01;10.80;99.90
15103;DHT22;7652;53.584;9.998;2023-04-25T15:29:04;10.80;99.90
15103;DHT22;7652;53.584;9.998;2023-04-25T15:32:08;10.80;99.90
15103;DHT22;7652;53.584;9.998;2023-04-25T15:35:11;10.70;99.90
15103;DHT22;7652;53.584;9.998;2023-04-25T15:38:15;10.70;99.90
15103;DHT22;7652;53.584;9.998;2023-04-25T15:41:19;10.70;99.90
15103;DHT22;7652;53.584;9.998;2023-04-25T15:44:22;10.60;99.90
15103;DHT22;7652;53.584;9.998;2023-04-25T15:47:25;10.70;99.90
15103;DHT22;7652;53.584;9.998;2023-04-25T15:50:28;10.70;99.90
15103;DHT22;7652;53.584;9.998;2023-04-25T15:53:31;10.50;99.90
15103;DHT22;7652;53.584;9.998;2023-04-25T15:56:36;10.50;99.90
15103;DHT22;7652;53.584;9.998;2023-04-25T15:59:39;10.60;99.90
15103;DHT22;7652;53.584;9.998;2023-04-25T16:02:43;10.60;99.90
15103;DHT22;7652;53.584;9.998;2023-04-25T16:05:46;10.60;99.90
15103;DHT22;7652;53.584;9.998;2023-04-25T16:08:50;10.50;99.90
15103;DHT22;7652;53.584;9.998;2023-04-25T16:11:55;10.50;99.90
15103;DHT22;7652;53.584;9.998;2023-04-25T16:14:58;10.50;99.90
15103;DHT22;7652;53.584;9.998;2023-04-25T16:18:01;10.50;99.90
15103;DHT22;7652;53.584;9.998;2023-04-25T16:21:04;10.50;99.90
15103;DHT22;7652;53.584;9.998;2023-04-25T16:24:07;10.40;99.90
15103;DHT22;7652;53.584;9.998;2023-04-25T16:27:11;10.30;99.90
15103;DHT22;7652;53.584;9.998;2023-04-25T16:30:15;10.30;99.90
15103;DHT22;7652;53.584;9.998;2023-04-25T16:33:18;10.10;99.90
15103;DHT22;7652;53.584;9.998;2023-04-25T16:36:22;10.00;99.90
15103;DHT22;7652;53.584;9.998;2023-04-25T16:39:25;9.90;99.90
15103;DHT22;7652;53.584;9.998;2023-04-25T16:42:29;9.70;99.90
15103;DHT22;7652;53.584;9.998;2023-04-25T16:45:32;9.70;99.90
15103;DHT22;7652;53.584;9.998;2023-04-25T16:48:35;9.80;99.90
15103;DHT22;7652;53.584;9.998;2023-04-25T16:51:38;9.70;99.90
15103;DHT22;7652;53.584;9.998;2023-04-25T16:54:41;9.70;99.90
15103;DHT22;7652;53.584;9.998;2023-04-25T16:57:45;9.60;99.90
15103;DHT22;7652;53.584;9.998;2023-04-25T17:00:48;9.60;99.90
15103;DHT22;7652;53.584;9.998;2023-04-25T17:03:52;9.60;99.90
15103;DHT22;7652;53.584;9.998;2023-04-25T17:06:55;9.60;99.90
15103;DHT22;7652;53.584;9.998;2023-04-25T17:09:58;9.50;99.90
15103;DHT22;7652;53.584;9.998;2023-04-25T17:13:03;9.40;99.90
15103;DHT22;7652;53.584;9.998;2023-04-25T17:16:06;9.20;99.90
15103;DHT22;7652;53.584;9.998;2023-04-25T17:19:11;9.20;99.90
15103;DHT22;7652;53.584;9.998;2023-04-25T17:22:14;9.10;99.90
15103;DHT22;7652;53.584;9.998;2023-04-25T17:25:17;9.00;99.90
15103;DHT22;7652;53.584;9.998;2023-04-25T17:28:21;8.80;99.90
15103;DHT22;7652;53.584;9.998;2023-04-25T17:31:24;8.70;99.90
15103;DHT22;7652;53.584;9.998;2023-04-25T17:34:27;8.60;99.90
15103;DHT22;7652;53.584;9.998;2023-04-25T17:37:32;8.40;99.90
15103;DHT22;7652;53.584;9.998;2023-04-25T17:40:35;8.20;99.90
15103;DHT22;7652;53.584;9.998;2023-04-25T17:43:40;8.10;99.90
15103;DHT22;7652;53.584;9.998;2023-04-25T17:46:43;8.10;99.90
15103;DHT22;7652;53.584;9.998;2023-04-25T17:49:46;7.90;99.90
15103;DHT22;7652;53.584;9.998;2023-04-25T17:52:49;7.90;99.90
15103;DHT22;7652;53.584;9.998;2023-04-25T17:55:52;7.80;99.90
15103;DHT22;7652;53.584;9.998;2023-04-25T17:58:56;7.80;99.90
15103;DHT22;7652;53.584;9.998;2023-04-25T18:02:00;7.80;99.90
15103;DHT22;7652;53.584;9.998;2023-04-25T18:05:04;7.80;99.90
15103;DHT22;7652;53.584;9.998;2023-04-25T18:08:10;7.70;99.90
15103;DHT22;7652;53.584;9.998;2023-04-25T18:11:13;7.70;99.90
15103;DHT22;7652;53.584;9.998;2023-04-25T18:14:18;7.60;99.90
15103;DHT22;7652;53.584;9.998;2023-04-25T18:17:21;7.70;99.90
15103;DHT22;7652;53.584;9.998;2023-04-25T18:20:25;7.70;99.90
15103;DHT22;7652;53.584;9.998;2023-04-25T18:23:29;7.70;99.90
15103;DHT22;7652;53.584;9.998;2023-04-25T18:26:33;7.60;99.90
15103;DHT22;7652;53.584;9.998;2023-04-25T18:29:37;7.60;99.90
15103;DHT22;7652;53.584;9.998;2023-04-25T18:32:43;7.60;99.90
15103;DHT22;7652;53.584;9.998;2023-04-25T18:35:46;7.60;99.90
15103;DHT22;7652;53.584;9.998;2023-04-25T18:39:00;7.50;99.90
15103;DHT22;7652;53.584;9.998;2023-04-25T18:42:23;7.50;99.90
15103;DHT22;7652;53.584;9.998;2023-04-25T18:45:27;7.50;99.90
15103;DHT22;7652;53.584;9.998;2023-04-25T18:48:30;7.30;99.90
15103;DHT22;7652;53.584;9.998;2023-04-25T18:51:34;7.30;99.90
15103;DHT22;7652;53.584;9.998;2023-04-25T18:54:38;7.30;99.90
15103;DHT22;7652;53.584;9.998;2023-04-25T18:57:41;7.30;99.90
15103;DHT22;7652;53.584;9.998;2023-04-25T19:00:46;7.40;99.90
15103;DHT22;7652;53.584;9.998;2023-04-25T19:03:50;7.30;99.90
15103;DHT22;7652;53.584;9.998;2023-04-25T19:06:57;7.20;99.90
15103;DHT22;7652;53.584;9.998;2023-04-25T19:10:01;7.10;99.90
15103;DHT22;7652;53.584;9.998;2023-04-25T19:13:04;7.00;99.90
15103;DHT22;7652;53.584;9.998;2023-04-25T19:16:09;6.90;99.90
15103;DHT22;7652;53.584;9.998;2023-04-25T19:19:12;6.80;99.90
15103;DHT22;7652;53.584;9.998;2023-04-25T19:22:16;6.80;99.90
15103;DHT22;7652;53.584;9.998;2023-04-25T19:25:19;6.70;99.90
15103;DHT22;7652;53.584;9.998;2023-04-25T19:28:23;6.70;99.90
15103;DHT22;7652;53.584;9.998;2023-04-25T19:31:28;6.70;99.90
15103;DHT22;7652;53.584;9.998;2023-04-25T19:34:31;6.70;99.90
15103;DHT22;7652;53.584;9.998;2023-04-25T19:37:34;6.70;99.90
15103;DHT22;7652;53.584;9.998;2023-04-25T19:40:37;6.70;99.90
15103;DHT22;7652;53.584;9.998;2023-04-25T19:43:40;6.60;99.90
15103;DHT22;7652;53.584;9.998;2023-04-25T19:46:45;6.70;99.90
15103;DHT22;7652;53.584;9.998;2023-04-25T19:49:49;6.60;99.90
15103;DHT22;7652;53.584;9.998;2023-04-25T19:52:53;6.70;99.90